CheckWX is a tool to help pilots better visualize weather data.  It is not intended as a substitute for an official pre-flight weather briefing.

17:59:19 UTC

KFMH TAF
Cape Cod Coast Guard Air Station Airport
Falmouth, Massachusetts, USA
KFMH 271729Z 2718/2818 22010G18KT P6SM SKC FM272300 22008KT P6SM BKN010 FM280100 22007KT 3/4SM BR OVC003 FM280300 22006KT 1/2SM FG OVC003 FM281500 21014KT P6SM BKN008

May-27@
18:00 UTC

May-27 @ 18:00 UTC

May-27@
23:00 UTC

May-27 @ 23:00 UTC

TAF KFMH 271729Z 2718/2818 22010G18KT P6SM SKC

Expired

Wind
  • 220° at 10 KTS
  • {Gusting to 18 KTS
Cloud Levels
  • Clear skies

May-27@
23:00 UTC

May-27 @ 23:00 UTC

May-28@
01:00 UTC

May-28 @ 01:00 UTC

FM272300 22008KT P6SM BKN010

Expired

Wind
  • 220° at 8 KTS
Cloud Levels
  • Broken at 1,000' AGL

May-28@
01:00 UTC

May-28 @ 01:00 UTC

May-28@
03:00 UTC

May-28 @ 03:00 UTC

FM280100 22007KT 3/4SM BR OVC003

Expired

Wind
  • 220° at 7 KTS
Conditions
Mist
Cloud Levels
  • Overcast at 300' AGL

May-28@
03:00 UTC

May-28 @ 03:00 UTC

May-28@
15:00 UTC

May-28 @ 15:00 UTC

FM280300 22006KT 1/2SM FG OVC003

Expired

Wind
  • 220° at 6 KTS
Conditions
Fog
Cloud Levels
  • Overcast at 300' AGL

May-28@
15:00 UTC

May-28 @ 15:00 UTC

May-28@
18:00 UTC

May-28 @ 18:00 UTC

FM281500 21014KT P6SM BKN008

From

From Standard forecast or significant change

Wind
  • 210° at 14 KTS
Cloud Levels
  • Broken at 800' AGL